createdAt,value
2023-02-02T00:01:58.383Z,3.60
2023-02-02T00:04:28.173Z,3.40
2023-02-02T00:06:58.144Z,4.13
2023-02-02T00:09:29.160Z,3.53
2023-02-02T00:11:58.219Z,3.37
2023-02-02T00:14:26.689Z,3.90
2023-02-02T00:16:55.885Z,3.40
2023-02-02T00:19:27.636Z,3.63
2023-02-02T00:21:57.685Z,3.10
2023-02-02T00:24:26.035Z,2.47
2023-02-02T00:26:56.075Z,3.10
2023-02-02T00:29:25.795Z,3.37
2023-02-02T00:31:54.526Z,2.77
2023-02-02T00:34:23.373Z,2.67
2023-02-02T00:36:52.435Z,2.87
2023-02-02T00:39:25.420Z,2.80
2023-02-02T00:41:53.847Z,2.80
2023-02-02T00:44:39.363Z,3.13
2023-02-02T00:47:07.507Z,2.47
2023-02-02T00:49:35.616Z,3.23
2023-02-02T00:52:03.698Z,3.23
2023-02-02T00:54:33.155Z,3.00
2023-02-02T01:04:44.500Z,2.00
2023-02-02T01:07:12.528Z,2.43
2023-02-02T01:09:42.000Z,2.90
2023-02-02T01:12:10.056Z,2.60
2023-02-02T01:14:38.104Z,2.83
2023-02-02T01:17:06.392Z,2.50
2023-02-02T01:24:17.742Z,2.43
2023-02-02T01:26:47.182Z,2.20
2023-02-02T01:29:15.702Z,2.73
2023-02-02T01:31:44.284Z,2.50
2023-02-02T01:34:12.344Z,3.10
2023-02-02T01:36:40.603Z,2.77
2023-02-02T01:39:08.820Z,2.90
2023-02-02T01:41:37.015Z,3.10
2023-02-02T01:44:08.210Z,3.80
2023-02-02T01:46:37.710Z,3.97
2023-02-02T01:49:09.183Z,2.87
2023-02-02T01:51:44.010Z,3.77
2023-02-02T01:54:20.049Z,2.73
2023-02-02T01:56:53.045Z,1.67
2023-02-02T01:59:23.522Z,2.27
2023-02-02T02:01:55.001Z,2.53
2023-02-02T02:04:25.160Z,2.50
2023-02-02T02:06:53.771Z,2.13
2023-02-02T02:09:22.167Z,2.17
2023-02-02T02:11:50.312Z,2.20
2023-02-02T02:14:35.759Z,4.73
2023-02-02T02:17:15.976Z,2.07
2023-02-02T02:20:37.300Z,1.83
2023-02-02T02:24:13.512Z,2.47
2023-02-02T02:27:14.611Z,2.53
2023-02-02T02:30:16.445Z,2.33
2023-02-02T02:32:53.712Z,2.30
2023-02-02T02:35:30.309Z,2.73
2023-02-02T02:38:03.537Z,2.80
2023-02-02T02:40:36.956Z,2.40
2023-02-02T02:43:10.797Z,2.63
2023-02-02T02:45:40.350Z,3.00
2023-02-02T02:48:11.471Z,2.13
2023-02-02T02:50:40.078Z,2.43
2023-02-02T02:53:12.580Z,2.30
2023-02-02T02:55:47.833Z,2.47
2023-02-02T02:58:20.812Z,2.07
2023-02-02T03:06:18.096Z,3.07
2023-02-02T03:08:50.234Z,2.63
2023-02-02T03:11:18.995Z,3.00
2023-02-02T03:13:47.811Z,3.00
2023-02-02T03:27:50.262Z,2.90
2023-02-02T03:30:18.740Z,3.37
2023-02-02T03:32:47.740Z,3.60
2023-02-02T03:35:16.099Z,3.17
2023-02-02T03:37:44.792Z,2.87
2023-02-02T03:40:13.395Z,3.47
2023-02-02T03:42:41.535Z,3.30
2023-02-02T03:45:12.365Z,2.80
2023-02-02T03:47:40.477Z,2.63
2023-02-02T03:50:10.102Z,3.43
2023-02-02T03:52:38.389Z,3.03
2023-02-02T03:55:07.549Z,3.03
2023-02-02T03:57:35.654Z,3.33
2023-02-02T04:00:04.375Z,2.93
2023-02-02T04:02:33.860Z,4.33
2023-02-02T04:05:02.271Z,3.27
2023-02-02T04:07:30.443Z,3.07
2023-02-02T04:09:58.524Z,2.90
2023-02-02T04:12:26.632Z,3.90
2023-02-02T04:14:54.758Z,3.67
2023-02-02T04:17:22.929Z,2.93
2023-02-02T04:35:16.180Z,2.70
2023-02-02T04:37:44.248Z,2.40
2023-02-02T04:40:13.915Z,2.93
2023-02-02T04:42:41.988Z,2.70
2023-02-02T04:45:10.714Z,2.63
2023-02-02T04:47:38.772Z,3.10
2023-02-02T04:50:07.902Z,3.10
2023-02-02T04:52:37.451Z,3.47
2023-02-02T04:55:05.922Z,3.03
2023-02-02T04:57:34.036Z,2.43
2023-02-02T05:00:02.110Z,3.07
2023-02-02T05:02:30.201Z,2.77
2023-02-02T05:04:58.308Z,2.70
2023-02-02T05:07:26.421Z,2.93
2023-02-02T05:09:55.885Z,3.27
2023-02-02T05:12:24.015Z,3.60
2023-02-02T05:14:52.076Z,3.30
2023-02-02T05:17:20.224Z,2.67
2023-02-02T05:19:48.272Z,2.20
2023-02-02T05:22:16.372Z,3.43
2023-02-02T05:24:44.519Z,3.13
2023-02-02T05:27:14.004Z,3.40
2023-02-02T05:29:42.158Z,2.80
2023-02-02T05:32:10.247Z,3.03
2023-02-02T05:34:38.420Z,3.43
2023-02-02T05:37:06.614Z,3.17
2023-02-02T05:39:34.719Z,3.03
2023-02-02T05:42:02.858Z,2.27
2023-02-02T05:44:32.282Z,3.30
2023-02-02T05:47:00.430Z,2.73
2023-02-02T05:49:28.744Z,2.20
2023-02-02T05:51:59.139Z,3.70
2023-02-02T05:54:27.300Z,3.53
2023-02-02T05:56:56.085Z,4.10
2023-02-02T05:59:24.518Z,2.87
2023-02-02T06:01:54.407Z,2.90
2023-02-02T06:04:22.758Z,4.60
2023-02-02T06:06:50.993Z,3.00
2023-02-02T06:09:19.143Z,3.30
2023-02-02T06:11:47.762Z,3.57
2023-02-02T06:14:15.935Z,3.80
2023-02-02T06:16:44.046Z,3.53
2023-02-02T06:19:13.553Z,2.73
2023-02-02T06:21:41.675Z,3.30
2023-02-02T06:24:09.931Z,2.60
2023-02-02T06:26:38.089Z,2.80
2023-02-02T06:29:06.867Z,2.60
2023-02-02T06:31:35.127Z,2.10
2023-02-02T06:34:03.351Z,2.50
2023-02-02T06:36:32.895Z,2.73
2023-02-02T06:39:02.300Z,2.70
2023-02-02T06:53:38.319Z,2.30
2023-02-02T06:56:08.943Z,2.83
2023-02-02T06:58:37.049Z,2.60
2023-02-02T07:01:07.424Z,2.70
2023-02-02T07:03:36.035Z,2.70
2023-02-02T07:06:13.268Z,2.73
2023-02-02T07:08:42.817Z,2.43
2023-02-02T07:11:15.380Z,2.43
2023-02-02T07:13:44.561Z,2.70
2023-02-02T07:16:13.937Z,2.67
2023-02-02T07:18:42.919Z,2.83
2023-02-02T07:21:18.581Z,2.73
2023-02-02T07:23:48.416Z,2.53
2023-02-02T07:26:17.995Z,2.43
2023-02-02T07:28:47.491Z,3.30
2023-02-02T07:31:17.969Z,2.30
2023-02-02T07:33:47.212Z,2.67
2023-02-02T07:36:17.815Z,2.93
2023-02-02T07:38:49.461Z,2.97
2023-02-02T07:41:17.889Z,3.13
2023-02-02T07:43:48.445Z,3.10
2023-02-02T07:46:18.140Z,3.07
2023-02-02T07:48:46.223Z,3.10
2023-02-02T07:51:16.716Z,3.33
2023-02-02T07:53:46.089Z,3.20
2023-02-02T07:56:17.296Z,3.77
2023-02-02T07:58:46.025Z,4.27
2023-02-02T08:01:16.197Z,3.30
2023-02-02T08:03:45.770Z,3.60
2023-02-02T08:06:17.009Z,3.30
2023-02-02T08:08:45.228Z,3.30
2023-02-02T08:11:16.974Z,3.90
2023-02-02T08:13:45.785Z,3.63
2023-02-02T08:16:14.100Z,3.90
2023-02-02T08:18:42.381Z,3.70
2023-02-02T08:21:10.912Z,3.73
2023-02-02T08:23:40.385Z,3.50
2023-02-02T08:26:11.480Z,3.37
2023-02-02T08:28:41.771Z,4.03
2023-02-02T08:31:11.369Z,3.20
2023-02-02T08:33:40.664Z,3.47
2023-02-02T08:36:12.907Z,5.03
2023-02-02T08:38:41.197Z,3.20
2023-02-02T08:41:11.013Z,2.97
2023-02-02T08:43:40.924Z,3.17
2023-02-02T08:46:14.861Z,2.87
2023-02-02T08:48:43.137Z,3.43
2023-02-02T08:51:14.500Z,3.87
2023-02-02T08:53:42.951Z,2.97
2023-02-02T08:56:13.405Z,3.83
2023-02-02T08:58:46.790Z,2.73
2023-02-02T09:01:17.463Z,3.63
2023-02-02T09:03:45.866Z,2.87
2023-02-02T09:06:16.363Z,2.90
2023-02-02T09:08:45.189Z,3.30
2023-02-02T09:11:15.863Z,3.20
2023-02-02T09:13:46.889Z,3.17
2023-02-02T09:16:16.450Z,2.33
2023-02-02T09:18:45.296Z,4.37
2023-02-02T09:21:15.178Z,3.10
2023-02-02T09:23:44.662Z,2.53
2023-02-02T09:26:14.471Z,2.30
2023-02-02T09:28:45.951Z,3.30
2023-02-02T09:31:14.949Z,3.30
2023-02-02T09:33:43.814Z,2.83
2023-02-02T09:36:14.298Z,2.80
2023-02-02T09:38:43.288Z,2.97
2023-02-02T09:41:39.383Z,2.47
2023-02-02T09:44:17.825Z,2.83
2023-02-02T09:47:00.546Z,2.57
2023-02-02T09:49:36.724Z,2.60
2023-02-02T09:52:17.356Z,2.20
2023-02-02T09:54:49.529Z,2.20
2023-02-02T09:57:22.940Z,3.07
2023-02-02T09:59:55.030Z,2.57
2023-02-02T10:02:25.914Z,2.40
2023-02-02T10:05:01.335Z,2.43
2023-02-02T10:07:34.282Z,2.60
2023-02-02T10:10:07.389Z,2.97
2023-02-02T10:12:47.275Z,2.93
2023-02-02T10:15:24.463Z,3.13
2023-02-02T10:17:58.718Z,2.33
2023-02-02T10:20:38.065Z,2.57
2023-02-02T10:23:14.916Z,2.23
2023-02-02T10:25:52.999Z,2.93
2023-02-02T10:28:24.976Z,3.50
2023-02-02T10:31:01.996Z,2.40
2023-02-02T10:33:38.547Z,3.80
2023-02-02T10:51:53.120Z,2.60
2023-02-02T10:54:55.446Z,2.50
2023-02-02T11:01:18.292Z,2.43
2023-02-02T11:03:46.610Z,2.40
2023-02-02T11:06:33.361Z,3.63
2023-02-02T11:09:05.010Z,2.80
2023-02-02T11:11:36.095Z,2.77
2023-02-02T11:14:16.380Z,2.37
2023-02-02T11:16:46.181Z,2.23
2023-02-02T11:19:25.332Z,2.93
2023-02-02T11:21:56.310Z,2.87
2023-02-02T11:24:29.482Z,3.00
2023-02-02T11:27:01.609Z,3.87
2023-02-02T11:29:32.140Z,2.90
2023-02-02T11:32:00.345Z,2.97
2023-02-02T11:34:29.275Z,2.23
2023-02-02T11:37:16.258Z,3.10
2023-02-02T11:39:45.945Z,2.37
2023-02-02T11:42:19.639Z,2.90
2023-02-02T11:44:50.978Z,2.40
2023-02-02T11:47:22.590Z,3.13
2023-02-02T11:49:53.436Z,2.17
2023-02-02T11:52:23.932Z,2.83
2023-02-02T11:54:56.692Z,2.53
2023-02-02T11:57:26.941Z,2.60
2023-02-02T12:00:16.357Z,2.43
2023-02-02T12:02:47.982Z,2.90
2023-02-02T12:05:36.095Z,3.03
2023-02-02T12:08:05.093Z,2.77
2023-02-02T12:10:41.825Z,3.43
2023-02-02T12:13:15.649Z,2.60
2023-02-02T12:15:52.714Z,2.70
2023-02-02T12:18:38.282Z,2.27
2023-02-02T12:21:08.435Z,2.27
2023-02-02T12:23:55.757Z,3.83
2023-02-02T12:26:30.091Z,2.53
2023-02-02T12:29:24.708Z,2.27
2023-02-02T12:32:09.244Z,2.13
2023-02-02T12:34:46.453Z,2.00
2023-02-02T12:37:25.799Z,2.47
2023-02-02T12:40:12.128Z,2.50
2023-02-02T12:42:56.952Z,2.80
2023-02-02T12:45:43.003Z,3.03
2023-02-02T12:48:28.128Z,2.10
2023-02-02T13:06:57.928Z,2.47
2023-02-02T13:09:31.297Z,2.27
2023-02-02T13:12:03.909Z,2.37
2023-02-02T13:14:35.619Z,2.83
2023-02-02T13:17:09.540Z,2.73
2023-02-02T13:19:42.480Z,2.03
2023-02-02T13:22:16.625Z,2.60
2023-02-02T13:24:48.260Z,2.57
2023-02-02T13:27:20.027Z,2.50
2023-02-02T13:29:54.798Z,2.93
2023-02-02T13:32:29.866Z,2.17
2023-02-02T13:35:02.595Z,2.63
2023-02-02T13:37:38.727Z,2.70
2023-02-02T13:40:21.405Z,3.10
2023-02-02T13:42:55.023Z,2.83
2023-02-02T13:45:42.792Z,3.83
2023-02-02T13:59:49.843Z,3.70
2023-02-02T14:02:25.339Z,4.87
2023-02-02T14:04:56.481Z,4.10
2023-02-02T14:07:41.742Z,3.53
2023-02-02T14:10:24.579Z,4.30
2023-02-02T14:12:53.195Z,3.77
2023-02-02T14:15:39.059Z,4.00
2023-02-02T14:18:07.532Z,3.93
2023-02-02T14:20:47.720Z,3.87
2023-02-02T14:23:51.259Z,3.93
2023-02-02T14:26:22.193Z,4.43
2023-02-02T14:28:52.427Z,3.80
2023-02-02T14:31:54.457Z,3.90
2023-02-02T14:34:34.945Z,4.03
2023-02-02T14:37:30.022Z,3.73
2023-02-02T14:40:09.667Z,3.03
2023-02-02T14:43:13.381Z,2.43
2023-02-02T14:45:42.070Z,3.10
2023-02-02T14:48:15.695Z,2.83
2023-02-02T14:50:48.061Z,2.77
2023-02-02T14:53:23.315Z,2.67
2023-02-02T14:55:59.484Z,2.67
2023-02-02T14:58:31.433Z,2.67
2023-02-02T15:01:08.533Z,2.90
2023-02-02T15:03:48.988Z,2.60
2023-02-02T15:06:29.795Z,3.37
2023-02-02T15:09:36.891Z,2.87
2023-02-02T15:12:33.938Z,2.80
2023-02-02T15:15:16.746Z,3.27
2023-02-02T15:17:55.911Z,2.83
2023-02-02T15:20:30.991Z,3.80
2023-02-02T15:23:04.340Z,3.33
2023-02-02T15:25:35.404Z,4.60
2023-02-02T15:28:11.361Z,3.20
2023-02-02T15:30:46.065Z,3.50
2023-02-02T15:33:28.013Z,3.37
2023-02-02T15:36:00.594Z,3.50
2023-02-02T15:38:47.793Z,3.63
2023-02-02T15:41:23.017Z,2.97
2023-02-02T15:43:51.690Z,3.00
2023-02-02T15:46:25.212Z,3.00
2023-02-02T15:49:31.470Z,2.87
2023-02-02T15:52:11.373Z,4.07
2023-02-02T15:54:39.635Z,3.40
2023-02-02T15:57:27.216Z,3.80
2023-02-02T15:59:55.699Z,3.80
2023-02-02T16:02:35.305Z,4.67
2023-02-02T16:05:03.500Z,4.27
2023-02-02T16:07:34.775Z,4.17
2023-02-02T16:10:05.497Z,4.33
2023-02-02T16:12:35.515Z,5.53
2023-02-02T16:15:03.658Z,4.93
2023-02-02T16:17:35.376Z,4.87
2023-02-02T16:20:08.499Z,4.93
2023-02-02T16:22:40.453Z,4.80
2023-02-02T16:25:11.295Z,5.27
2023-02-02T16:27:43.091Z,4.37
2023-02-02T16:30:24.698Z,5.00
2023-02-02T16:32:52.836Z,5.80
2023-02-02T16:35:35.276Z,6.07
2023-02-02T16:38:25.199Z,5.70
2023-02-02T16:41:07.369Z,5.67
2023-02-02T16:43:36.255Z,5.23
2023-02-02T16:46:08.899Z,5.67
2023-02-02T16:48:38.275Z,6.53
2023-02-02T16:51:27.625Z,6.63
2023-02-02T16:54:11.772Z,6.57
2023-02-02T16:56:43.155Z,7.30
2023-02-02T16:59:19.568Z,6.73
2023-02-02T17:01:50.958Z,8.17
2023-02-02T17:04:23.179Z,7.63
2023-02-02T17:06:53.506Z,8.53
2023-02-02T17:09:35.659Z,7.87
2023-02-02T17:12:09.343Z,7.50
2023-02-02T17:14:39.139Z,6.87
2023-02-02T17:17:10.065Z,7.17
2023-02-02T17:19:38.127Z,6.10
2023-02-02T17:22:06.304Z,6.90
2023-02-02T17:24:36.076Z,6.80
2023-02-02T17:27:04.791Z,6.87
2023-02-02T17:29:34.690Z,6.67
2023-02-02T17:32:02.741Z,6.10
2023-02-02T17:34:30.942Z,5.53
2023-02-02T17:37:00.252Z,5.97
2023-02-02T17:39:28.448Z,5.57
2023-02-02T17:41:58.275Z,5.13
2023-02-02T17:44:27.373Z,5.67
2023-02-02T17:46:55.480Z,4.90
2023-02-02T17:49:24.458Z,6.27
2023-02-02T17:51:52.578Z,5.00
2023-02-02T17:54:20.675Z,5.67
2023-02-02T17:56:48.920Z,5.00
2023-02-02T17:59:18.410Z,4.67
2023-02-02T18:01:46.597Z,4.83
2023-02-02T18:04:16.100Z,5.13
2023-02-02T18:06:44.222Z,4.77
2023-02-02T18:09:12.462Z,4.93
2023-02-02T18:11:42.520Z,5.00
2023-02-02T18:14:11.047Z,4.83
2023-02-02T18:16:40.638Z,4.93
2023-02-02T18:34:24.215Z,4.97
2023-02-02T18:36:52.349Z,4.20
2023-02-02T18:39:20.528Z,4.83
2023-02-02T18:41:48.763Z,4.77
2023-02-02T18:44:17.212Z,4.97
2023-02-02T18:46:45.415Z,4.77
2023-02-02T18:49:13.856Z,4.00
2023-02-02T18:51:43.345Z,4.67
2023-02-02T18:54:12.607Z,4.60
2023-02-02T18:56:40.964Z,4.20
2023-02-02T18:59:09.192Z,5.20
2023-02-02T19:01:37.482Z,3.57
2023-02-02T19:04:06.067Z,4.27
2023-02-02T19:06:51.939Z,3.87
2023-02-02T19:09:22.348Z,4.10
2023-02-02T19:11:51.668Z,3.97
2023-02-02T19:14:24.667Z,3.83
2023-02-02T19:16:54.141Z,4.67
2023-02-02T19:19:25.420Z,4.13
2023-02-02T19:21:56.514Z,4.23
2023-02-02T19:24:27.727Z,4.07
2023-02-02T19:26:56.126Z,4.33
2023-02-02T19:29:25.711Z,3.90
2023-02-02T19:31:57.402Z,3.60
2023-02-02T19:34:25.712Z,3.50
2023-02-02T19:36:53.928Z,3.83
2023-02-02T19:39:28.273Z,3.20
2023-02-02T19:42:00.578Z,3.07
2023-02-02T19:44:31.708Z,3.73
2023-02-02T19:47:00.498Z,3.07
2023-02-02T19:49:33.118Z,3.20
2023-02-02T19:52:03.802Z,3.30
2023-02-02T19:54:35.254Z,3.50
2023-02-02T19:57:16.066Z,3.23
2023-02-02T19:59:46.859Z,3.03
2023-02-02T20:02:39.776Z,3.53
2023-02-02T20:05:18.686Z,2.83
2023-02-02T20:07:47.277Z,3.43
2023-02-02T20:10:22.971Z,3.10
2023-02-02T20:12:53.605Z,3.00
2023-02-02T20:15:34.452Z,3.27
2023-02-02T20:18:04.697Z,3.23
2023-02-02T20:20:39.213Z,3.00
2023-02-02T20:23:27.513Z,2.70
2023-02-02T20:25:55.796Z,3.10
2023-02-02T20:28:35.800Z,2.47
2023-02-02T20:31:06.116Z,2.90
2023-02-02T20:33:34.211Z,2.13
2023-02-02T20:36:03.141Z,2.63
2023-02-02T20:38:39.172Z,2.70
2023-02-02T20:41:07.255Z,2.60
2023-02-02T20:43:36.712Z,2.47
2023-02-02T20:46:05.115Z,2.50
2023-02-02T20:48:33.263Z,2.10
2023-02-02T20:51:01.371Z,2.40
2023-02-02T20:53:29.457Z,2.67
2023-02-02T20:55:59.841Z,3.13
2023-02-02T20:58:28.146Z,2.77
2023-02-02T21:00:57.687Z,2.33
2023-02-02T21:03:25.814Z,2.60
2023-02-02T21:05:53.879Z,2.10
2023-02-02T21:08:22.024Z,2.90
2023-02-02T21:10:50.152Z,2.43
2023-02-02T21:13:18.256Z,2.37
2023-02-02T21:15:46.379Z,2.70
2023-02-02T21:18:15.900Z,2.57
2023-02-02T21:20:44.004Z,3.40
2023-02-02T21:23:12.047Z,2.00
2023-02-02T21:25:40.107Z,2.23
2023-02-02T21:28:08.371Z,2.30
2023-02-02T21:30:37.132Z,2.10
2023-02-02T21:33:06.438Z,2.57
2023-02-02T21:35:37.062Z,2.40
2023-02-02T21:38:14.042Z,2.60
2023-02-02T21:40:42.797Z,2.53
2023-02-02T21:43:16.431Z,2.97
2023-02-02T21:45:46.029Z,2.60
2023-02-02T21:48:34.607Z,2.13
2023-02-02T21:51:21.906Z,2.97
2023-02-02T21:53:50.100Z,2.27
2023-02-02T21:56:28.401Z,2.43
2023-02-02T21:58:59.201Z,2.73
2023-02-02T22:01:37.060Z,3.10
2023-02-02T22:04:13.203Z,2.50
2023-02-02T22:06:46.238Z,2.70
2023-02-02T22:09:20.429Z,2.60
2023-02-02T22:11:52.428Z,2.23
2023-02-02T22:14:26.107Z,2.87
2023-02-02T22:16:57.780Z,2.53
2023-02-02T22:19:38.924Z,2.70
2023-02-02T22:22:16.482Z,2.80
2023-02-02T22:24:46.062Z,2.93
2023-02-02T22:27:22.870Z,3.27
2023-02-02T22:29:53.819Z,3.33
2023-02-02T22:32:21.918Z,2.83
2023-02-02T22:34:50.012Z,3.30
2023-02-02T22:37:19.471Z,2.60
2023-02-02T22:39:47.583Z,2.50
2023-02-02T22:42:15.658Z,2.87
2023-02-02T22:44:44.236Z,2.63
2023-02-02T22:47:12.314Z,2.80
2023-02-02T22:49:40.426Z,3.03
2023-02-02T22:52:08.502Z,3.17
2023-02-02T22:54:37.951Z,3.10
2023-02-02T22:57:06.225Z,2.83
2023-02-02T22:59:34.252Z,2.50
2023-02-02T23:02:02.318Z,2.47
2023-02-02T23:04:30.480Z,2.70
2023-02-02T23:06:58.515Z,2.70
2023-02-02T23:09:26.722Z,2.97
2023-02-02T23:11:56.204Z,3.20
2023-02-02T23:14:24.272Z,2.50
2023-02-02T23:16:52.355Z,3.03
2023-02-02T23:19:20.445Z,2.33
2023-02-02T23:21:48.539Z,3.13
2023-02-02T23:24:16.696Z,2.10
2023-02-02T23:26:44.806Z,2.30
2023-02-02T23:29:14.219Z,2.63
2023-02-02T23:31:42.590Z,2.47
2023-02-02T23:34:11.058Z,2.77
2023-02-02T23:36:39.312Z,3.10
2023-02-02T23:39:07.522Z,2.90
2023-02-02T23:41:35.596Z,2.53
2023-02-02T23:44:03.755Z,2.33
2023-02-02T23:46:33.473Z,2.73
2023-02-02T23:49:02.112Z,2.23
2023-02-02T23:51:30.325Z,3.30
2023-02-02T23:53:59.010Z,2.67
2023-02-02T23:56:27.194Z,2.27
2023-02-02T23:58:55.479Z,1.67
